createdAt,value
2022-12-28T00:02:19.745Z,6.71
2022-12-28T00:04:47.641Z,6.74
2022-12-28T00:07:15.430Z,6.76
2022-12-28T00:09:43.162Z,6.80
2022-12-28T00:12:11.396Z,6.79
2022-12-28T00:14:39.120Z,6.84
2022-12-28T00:17:08.211Z,6.85
2022-12-28T00:19:35.953Z,6.87
2022-12-28T00:22:03.687Z,6.88
2022-12-28T00:24:31.408Z,6.94
2022-12-28T00:26:59.654Z,7.00
2022-12-28T00:29:27.473Z,7.09
2022-12-28T00:31:56.018Z,7.08
2022-12-28T00:34:26.432Z,7.07
2022-12-28T00:37:10.260Z,7.07
2022-12-28T00:39:42.009Z,7.04
2022-12-28T00:42:10.294Z,7.00
2022-12-28T00:44:38.309Z,6.93
2022-12-28T00:47:06.181Z,6.88
2022-12-28T00:49:35.336Z,6.84
2022-12-28T00:52:03.258Z,6.85
2022-12-28T00:54:31.109Z,6.84
2022-12-28T00:56:58.985Z,6.80
2022-12-28T00:59:26.779Z,6.81
2022-12-28T01:01:54.652Z,6.80
2022-12-28T01:04:22.878Z,6.76
2022-12-28T01:06:52.076Z,6.83
2022-12-28T01:09:19.770Z,6.79
2022-12-28T01:11:47.515Z,6.81
2022-12-28T01:14:15.909Z,6.87
2022-12-28T01:16:43.929Z,6.87
2022-12-28T01:19:15.122Z,6.93
2022-12-28T01:21:42.870Z,7.02
2022-12-28T01:24:11.991Z,7.04
2022-12-28T01:26:39.743Z,7.14
2022-12-28T01:29:07.528Z,7.11
2022-12-28T01:31:35.605Z,7.14
2022-12-28T01:34:03.670Z,7.21
2022-12-28T01:36:34.966Z,7.25
2022-12-28T01:39:05.428Z,7.24
2022-12-28T01:41:39.384Z,7.32
2022-12-28T01:44:38.648Z,7.32
2022-12-28T01:47:07.814Z,7.32
2022-12-28T01:49:40.915Z,7.35
2022-12-28T01:52:12.403Z,7.38
2022-12-28T01:54:43.928Z,7.35
2022-12-28T01:57:13.979Z,7.35
2022-12-28T01:59:48.071Z,7.41
2022-12-28T02:02:16.897Z,7.36
2022-12-28T02:04:46.396Z,7.35
2022-12-28T02:07:15.175Z,7.41
2022-12-28T02:09:44.816Z,7.41
2022-12-28T02:12:34.039Z,7.43
2022-12-28T02:15:02.713Z,7.43
2022-12-28T02:17:30.810Z,7.51
2022-12-28T02:19:58.583Z,7.80
2022-12-28T02:22:57.020Z,7.91
2022-12-28T02:25:46.421Z,7.87
2022-12-28T02:28:38.891Z,7.96
2022-12-28T02:31:12.776Z,8.04
2022-12-28T02:33:47.435Z,8.01
2022-12-28T02:36:20.244Z,8.11
2022-12-28T02:38:52.765Z,7.97
2022-12-28T02:41:23.733Z,8.06
2022-12-28T02:43:53.132Z,8.06
2022-12-28T02:46:39.570Z,8.16
2022-12-28T02:49:36.915Z,8.10
2022-12-28T02:52:15.877Z,8.14
2022-12-28T02:55:19.155Z,8.24
2022-12-28T02:58:06.160Z,8.23
2022-12-28T03:00:50.291Z,8.18
2022-12-28T03:03:24.855Z,8.21
2022-12-28T03:06:19.688Z,8.14
2022-12-28T03:08:57.062Z,8.34
2022-12-28T03:11:34.194Z,8.18
2022-12-28T03:14:07.521Z,8.27
2022-12-28T03:16:53.388Z,8.17
2022-12-28T03:19:46.060Z,8.28
2022-12-28T03:22:32.976Z,8.34
2022-12-28T03:25:22.603Z,8.31
2022-12-28T03:28:10.107Z,8.37
2022-12-28T03:30:59.956Z,8.37
2022-12-28T03:33:29.442Z,8.40
2022-12-28T03:36:03.370Z,8.41
2022-12-28T03:38:39.397Z,8.48
2022-12-28T03:41:09.970Z,8.41
2022-12-28T03:43:44.393Z,8.37
2022-12-28T03:46:21.371Z,8.49
2022-12-28T03:48:52.862Z,8.52
2022-12-28T03:51:23.646Z,8.52
2022-12-28T03:53:52.572Z,8.56
2022-12-28T03:56:25.222Z,8.44
2022-12-28T03:58:55.601Z,8.44
2022-12-28T04:01:26.583Z,8.44
2022-12-28T04:03:56.407Z,8.44
2022-12-28T04:06:26.702Z,8.48
2022-12-28T04:08:54.504Z,8.41
2022-12-28T04:11:23.652Z,8.41
2022-12-28T04:13:54.419Z,8.55
2022-12-28T04:16:23.044Z,8.48
2022-12-28T04:18:52.333Z,8.45
2022-12-28T04:21:22.807Z,8.49
2022-12-28T04:23:50.643Z,8.49
2022-12-28T04:26:21.748Z,8.59
2022-12-28T04:28:52.460Z,8.59
2022-12-28T04:31:38.691Z,8.55
2022-12-28T04:34:16.373Z,8.55
2022-12-28T04:36:56.139Z,8.51
2022-12-28T04:39:24.634Z,8.55
2022-12-28T04:41:52.643Z,8.65
2022-12-28T04:44:20.369Z,8.62
2022-12-28T04:46:48.141Z,8.61
2022-12-28T04:49:15.912Z,8.65
2022-12-28T04:51:43.704Z,8.64
2022-12-28T04:54:15.111Z,8.66
2022-12-28T04:56:42.868Z,8.68
2022-12-28T04:59:10.743Z,8.64
2022-12-28T05:01:38.787Z,8.65
2022-12-28T05:04:07.027Z,8.72
2022-12-28T05:06:34.937Z,8.73
2022-12-28T05:09:02.882Z,8.80
2022-12-28T05:11:32.711Z,8.88
2022-12-28T05:14:00.694Z,8.90
2022-12-28T05:16:30.638Z,8.90
2022-12-28T05:18:58.931Z,8.79
2022-12-28T05:21:28.462Z,8.85
2022-12-28T05:23:57.029Z,8.88
2022-12-28T05:26:27.078Z,8.95
2022-12-28T05:28:56.790Z,8.93
2022-12-28T05:31:25.536Z,8.95
2022-12-28T05:33:54.027Z,8.86
2022-12-28T05:36:23.517Z,8.85
2022-12-28T05:38:51.973Z,8.83
2022-12-28T05:41:22.724Z,8.88
2022-12-28T05:43:51.322Z,8.89
2022-12-28T05:46:22.285Z,8.85
2022-12-28T05:48:50.214Z,8.86
2022-12-28T05:51:21.203Z,8.88
2022-12-28T05:53:49.066Z,8.83
2022-12-28T05:56:18.741Z,8.76
2022-12-28T05:58:47.959Z,8.82
2022-12-28T06:01:17.374Z,8.93
2022-12-28T06:03:47.953Z,8.92
2022-12-28T06:06:17.742Z,8.86
2022-12-28T06:08:46.557Z,8.88
2022-12-28T06:11:16.401Z,8.90
2022-12-28T06:13:44.365Z,8.86
2022-12-28T06:16:14.018Z,8.76
2022-12-28T06:18:42.573Z,8.79
2022-12-28T06:21:13.833Z,8.66
2022-12-28T06:23:42.471Z,8.61
2022-12-28T06:26:13.025Z,8.59
2022-12-28T06:28:41.301Z,8.52
2022-12-28T06:31:11.984Z,8.56
2022-12-28T06:33:40.456Z,8.56
2022-12-28T06:36:19.701Z,8.58
2022-12-28T06:38:49.233Z,8.61
2022-12-28T06:41:18.149Z,8.56
2022-12-28T06:43:47.280Z,8.54
2022-12-28T06:46:16.619Z,8.55
2022-12-28T06:48:44.443Z,8.64
2022-12-28T06:51:15.904Z,8.62
2022-12-28T06:53:44.319Z,8.62
2022-12-28T06:56:14.800Z,8.65
2022-12-28T06:58:43.235Z,8.65
2022-12-28T07:01:16.247Z,8.76
2022-12-28T07:03:45.290Z,8.72
2022-12-28T07:06:15.640Z,8.79
2022-12-28T07:08:43.777Z,8.80
2022-12-28T07:11:14.185Z,8.78
2022-12-28T07:13:42.595Z,8.79
2022-12-28T07:16:13.724Z,8.79
2022-12-28T07:18:42.112Z,8.79
2022-12-28T07:21:13.186Z,8.76
2022-12-28T07:23:42.633Z,8.86
2022-12-28T07:26:11.035Z,8.90
2022-12-28T07:28:39.708Z,8.82
2022-12-28T07:31:08.219Z,8.86
2022-12-28T07:33:37.648Z,8.89
2022-12-28T07:36:06.184Z,8.86
2022-12-28T07:38:34.381Z,8.93
2022-12-28T07:41:04.142Z,8.95
2022-12-28T07:43:31.916Z,8.96
2022-12-28T07:46:03.999Z,8.99
2022-12-28T07:48:32.722Z,8.92
2022-12-28T07:51:07.989Z,8.93
2022-12-28T07:53:35.801Z,8.95
2022-12-28T07:56:05.503Z,9.02
2022-12-28T07:58:33.645Z,9.03
2022-12-28T08:01:06.332Z,9.03
2022-12-28T08:03:34.706Z,9.00
2022-12-28T08:06:07.150Z,9.07
2022-12-28T08:08:36.035Z,9.13
2022-12-28T08:11:07.467Z,9.12
2022-12-28T08:13:36.311Z,9.07
2022-12-28T08:16:05.305Z,9.10
2022-12-28T08:18:33.332Z,9.09
2022-12-28T08:21:02.869Z,9.12
2022-12-28T08:23:30.787Z,9.10
2022-12-28T08:25:58.772Z,9.09
2022-12-28T08:28:27.904Z,9.07
2022-12-28T08:30:55.784Z,9.17
2022-12-28T08:33:23.626Z,9.17
2022-12-28T08:35:51.418Z,9.20
2022-12-28T08:38:19.225Z,9.22
2022-12-28T08:40:57.655Z,9.19
2022-12-28T08:43:27.915Z,9.26
2022-12-28T08:45:59.764Z,9.26
2022-12-28T08:48:27.646Z,9.31
2022-12-28T08:50:56.376Z,9.29
2022-12-28T08:53:24.380Z,9.30
2022-12-28T08:55:52.486Z,9.29
2022-12-28T08:58:20.469Z,9.33
2022-12-28T09:00:49.564Z,9.34
2022-12-28T09:03:17.447Z,9.34
2022-12-28T09:05:45.663Z,9.31
2022-12-28T09:08:14.814Z,9.34
2022-12-28T09:10:42.580Z,9.33
2022-12-28T09:13:10.385Z,9.41
2022-12-28T09:15:38.224Z,9.38
2022-12-28T09:18:07.420Z,9.31
2022-12-28T09:20:36.090Z,9.30
2022-12-28T09:23:03.881Z,9.36
2022-12-28T09:25:31.647Z,9.44
2022-12-28T09:27:59.773Z,9.46
2022-12-28T09:30:27.558Z,9.41
2022-12-28T09:33:16.917Z,9.47
2022-12-28T09:35:46.047Z,9.47
2022-12-28T09:38:13.843Z,9.52
2022-12-28T09:40:41.809Z,9.44
2022-12-28T09:43:10.464Z,9.46
2022-12-28T09:45:39.046Z,9.48
2022-12-28T09:48:12.444Z,9.54
2022-12-28T09:50:40.485Z,9.58
2022-12-28T09:53:30.350Z,9.61
2022-12-28T09:56:25.164Z,9.67
2022-12-28T09:58:53.534Z,9.68
2022-12-28T10:01:22.918Z,9.67
2022-12-28T10:03:50.932Z,9.68
2022-12-28T10:06:23.389Z,9.62
2022-12-28T10:08:54.892Z,9.65
2022-12-28T10:11:25.197Z,9.70
2022-12-28T10:13:56.934Z,9.71
2022-12-28T10:16:26.519Z,9.75
2022-12-28T10:18:54.462Z,9.77
2022-12-28T10:21:30.171Z,9.79
2022-12-28T10:24:31.433Z,9.82
2022-12-28T10:26:56.079Z,9.89
2022-12-28T10:29:25.135Z,9.91
2022-12-28T10:32:02.005Z,9.94
2022-12-28T10:34:34.818Z,10.08
2022-12-28T10:37:14.524Z,10.19
2022-12-28T10:39:52.710Z,10.33
2022-12-28T10:42:24.661Z,10.30
2022-12-28T10:44:52.632Z,10.26
2022-12-28T10:47:30.543Z,10.38
2022-12-28T10:52:57.759Z,10.45
2022-12-28T10:55:33.189Z,10.45
2022-12-28T10:58:33.405Z,10.46
2022-12-28T11:01:06.755Z,10.52
2022-12-28T11:03:37.186Z,10.33
2022-12-28T11:06:27.217Z,10.32
2022-12-28T11:09:14.951Z,10.19
2022-12-28T11:11:45.573Z,10.16
2022-12-28T11:14:19.727Z,10.20
2022-12-28T11:16:47.584Z,10.22
2022-12-28T11:19:16.033Z,10.22
2022-12-28T11:21:45.403Z,10.22
2022-12-28T11:24:14.770Z,10.13
2022-12-28T11:26:45.391Z,10.12
2022-12-28T11:29:15.322Z,10.11
2022-12-28T11:31:47.419Z,10.18
2022-12-28T11:34:19.587Z,10.15
2022-12-28T11:36:48.523Z,10.12
2022-12-28T11:39:44.694Z,10.09
2022-12-28T11:42:39.577Z,10.12
2022-12-28T11:45:14.524Z,10.13
2022-12-28T11:47:42.358Z,10.22
2022-12-28T11:50:52.559Z,10.40
2022-12-28T11:53:24.208Z,10.29
2022-12-28T11:56:03.287Z,10.25
2022-12-28T11:59:15.386Z,10.22
2022-12-28T12:01:46.616Z,10.09
2022-12-28T12:04:29.137Z,10.03
2022-12-28T12:07:45.637Z,9.91
2022-12-28T12:10:35.228Z,9.75
2022-12-28T12:13:37.799Z,9.68
2022-12-28T12:16:17.109Z,9.51
2022-12-28T12:18:47.407Z,9.33
2022-12-28T12:21:31.251Z,9.20
2022-12-28T12:24:05.989Z,9.09
2022-12-28T12:26:39.096Z,9.03
2022-12-28T12:29:14.571Z,9.03
2022-12-28T12:31:45.718Z,9.09
2022-12-28T12:34:21.952Z,9.16
2022-12-28T12:37:18.408Z,9.20
2022-12-28T12:40:26.956Z,9.29
2022-12-28T12:43:16.521Z,9.34
2022-12-28T12:45:53.281Z,9.48
2022-12-28T12:48:37.532Z,9.50
2022-12-28T12:51:19.560Z,9.51
2022-12-28T12:53:58.228Z,9.57
2022-12-28T12:56:45.407Z,9.57
2022-12-28T12:59:42.431Z,9.60
2022-12-28T13:02:26.405Z,9.62
2022-12-28T13:04:54.530Z,9.64
2022-12-28T13:07:26.511Z,9.62
2022-12-28T13:09:58.243Z,9.70
2022-12-28T13:12:26.561Z,9.68
2022-12-28T13:14:58.391Z,9.70
2022-12-28T13:17:27.104Z,9.73
2022-12-28T13:20:09.910Z,9.75
2022-12-28T13:22:43.495Z,9.75
2022-12-28T13:25:24.351Z,9.77
2022-12-28T13:27:52.490Z,9.81
2022-12-28T13:30:22.174Z,9.88
2022-12-28T13:32:52.743Z,9.91
2022-12-28T13:35:22.422Z,9.92
2022-12-28T13:38:13.598Z,9.91
2022-12-28T13:40:49.437Z,9.89
2022-12-28T13:43:59.395Z,9.95
2022-12-28T13:46:27.762Z,9.97
2022-12-28T13:48:59.474Z,9.98
2022-12-28T13:51:27.489Z,9.95
2022-12-28T13:54:01.093Z,9.99
2022-12-28T13:56:29.864Z,9.95
2022-12-28T13:59:01.234Z,9.98
2022-12-28T14:01:35.187Z,9.95
2022-12-28T14:04:42.544Z,9.98
2022-12-28T14:06:55.673Z,9.97
2022-12-28T14:09:25.110Z,9.98
2022-12-28T14:11:52.863Z,9.97
2022-12-28T14:14:20.763Z,9.95
2022-12-28T14:16:48.644Z,9.94
2022-12-28T14:19:16.782Z,9.92
2022-12-28T14:21:47.343Z,9.91
2022-12-28T14:24:17.106Z,9.92
2022-12-28T14:26:52.075Z,9.92
2022-12-28T14:29:24.319Z,9.92
2022-12-28T14:31:56.961Z,9.92
2022-12-28T14:34:28.318Z,9.92
2022-12-28T14:36:56.987Z,9.97
2022-12-28T14:39:32.398Z,9.97
2022-12-28T14:42:03.986Z,9.98
2022-12-28T14:44:34.110Z,10.02
2022-12-28T14:47:01.951Z,10.08
2022-12-28T14:49:36.055Z,10.12
2022-12-28T14:52:38.689Z,10.11
2022-12-28T14:55:22.160Z,10.13
2022-12-28T14:57:54.999Z,10.12
2022-12-28T15:00:25.788Z,10.16
2022-12-28T15:02:53.843Z,10.18
2022-12-28T15:05:39.685Z,10.18
2022-12-28T15:08:08.638Z,10.15
2022-12-28T15:10:44.110Z,10.11
2022-12-28T15:13:13.229Z,10.06
2022-12-28T15:15:41.138Z,10.06
2022-12-28T15:18:08.994Z,10.05
2022-12-28T15:20:38.403Z,10.06
2022-12-28T15:23:06.585Z,10.03
2022-12-28T15:25:35.834Z,10.05
2022-12-28T15:28:04.130Z,9.98
2022-12-28T15:30:33.307Z,9.98
2022-12-28T15:33:01.153Z,9.98
2022-12-28T15:35:28.932Z,9.97
2022-12-28T15:37:57.352Z,9.99
2022-12-28T15:40:25.087Z,10.01
2022-12-28T15:42:52.983Z,10.02
2022-12-28T15:45:20.740Z,10.05
2022-12-28T15:47:50.062Z,10.01
2022-12-28T15:50:17.777Z,10.03
2022-12-28T15:52:45.544Z,10.02
2022-12-28T15:55:13.467Z,10.03
2022-12-28T15:57:41.278Z,10.06
2022-12-28T16:00:10.210Z,10.02
2022-12-28T16:02:38.378Z,10.09
2022-12-28T16:05:08.222Z,10.12
2022-12-28T16:07:36.120Z,10.09
2022-12-28T16:10:03.956Z,10.09
2022-12-28T16:12:31.703Z,10.09
2022-12-28T16:14:59.533Z,10.08
2022-12-28T16:17:27.295Z,10.05
2022-12-28T16:19:55.083Z,10.05
2022-12-28T16:22:24.462Z,10.05
2022-12-28T16:24:52.197Z,10.03
2022-12-28T16:27:20.070Z,9.95
2022-12-28T16:29:52.686Z,9.92
2022-12-28T16:32:23.264Z,9.82
2022-12-28T16:34:51.067Z,9.68
2022-12-28T16:37:18.886Z,9.60
2022-12-28T16:39:48.045Z,9.55
2022-12-28T16:42:15.837Z,9.51
2022-12-28T16:44:45.831Z,9.47
2022-12-28T16:47:13.612Z,9.44
2022-12-28T16:49:41.764Z,9.34
2022-12-28T16:52:09.661Z,9.27
2022-12-28T16:54:37.433Z,9.22
2022-12-28T16:57:06.641Z,9.24
2022-12-28T16:59:34.389Z,9.24
2022-12-28T17:02:02.773Z,9.22
2022-12-28T17:04:30.696Z,9.20
2022-12-28T17:06:59.559Z,9.19
2022-12-28T17:09:27.369Z,9.23
2022-12-28T17:11:55.155Z,9.22
2022-12-28T17:14:36.912Z,9.17
2022-12-28T17:17:05.743Z,9.17
2022-12-28T17:19:33.664Z,9.17
2022-12-28T17:22:01.579Z,9.16
2022-12-28T17:24:29.366Z,9.13
2022-12-28T17:27:00.543Z,9.09
2022-12-28T17:29:34.520Z,9.09
2022-12-28T17:32:02.517Z,9.07
2022-12-28T17:34:30.409Z,9.03
2022-12-28T17:36:58.291Z,8.99
2022-12-28T17:39:26.348Z,8.95
2022-12-28T17:41:54.158Z,8.99
2022-12-28T17:44:21.968Z,8.97
2022-12-28T17:46:51.057Z,8.90
2022-12-28T17:49:18.824Z,8.85
2022-12-28T17:51:46.643Z,8.80
2022-12-28T17:54:16.715Z,8.78
2022-12-28T17:56:44.957Z,8.83
2022-12-28T17:59:14.551Z,8.82
2022-12-28T18:01:42.518Z,8.86
2022-12-28T18:04:12.278Z,8.78
2022-12-28T18:06:40.420Z,8.71
2022-12-28T18:09:08.330Z,8.68
2022-12-28T18:11:36.279Z,8.66
2022-12-28T18:14:04.132Z,8.65
2022-12-28T18:16:32.001Z,8.64
2022-12-28T18:18:59.958Z,8.64
2022-12-28T18:21:29.135Z,8.64
2022-12-28T18:23:57.264Z,8.64
2022-12-28T18:26:27.105Z,8.62
2022-12-28T18:28:55.027Z,8.58
2022-12-28T18:31:23.153Z,8.64
2022-12-28T18:33:51.034Z,8.64
2022-12-28T18:36:18.906Z,8.56
2022-12-28T18:38:49.000Z,8.64
2022-12-28T18:41:20.595Z,8.66
2022-12-28T18:43:49.207Z,8.65
2022-12-28T18:46:17.121Z,8.64
2022-12-28T18:48:45.258Z,8.64
2022-12-28T18:51:14.724Z,8.69
2022-12-28T18:53:42.717Z,8.66
2022-12-28T18:56:14.055Z,8.76
2022-12-28T18:58:45.233Z,8.73
2022-12-28T19:04:03.332Z,8.80
2022-12-28T19:06:32.762Z,8.78
2022-12-28T19:09:00.685Z,8.86
2022-12-28T19:11:30.560Z,8.86
2022-12-28T19:13:58.569Z,9.02
2022-12-28T19:16:31.175Z,9.22
2022-12-28T19:19:00.010Z,9.23
2022-12-28T19:21:29.578Z,9.27
2022-12-28T19:23:59.171Z,9.30
2022-12-28T19:26:27.357Z,9.36
2022-12-28T19:28:58.020Z,9.43
2022-12-28T19:31:26.493Z,9.46
2022-12-28T19:33:54.391Z,9.57
2022-12-28T19:36:22.256Z,9.58
2022-12-28T19:38:50.122Z,9.64
2022-12-28T19:41:18.222Z,9.70
2022-12-28T19:43:46.074Z,9.71
2022-12-28T19:46:17.505Z,9.73
2022-12-28T19:48:45.665Z,9.74
2022-12-28T19:51:14.312Z,9.74
2022-12-28T19:53:42.226Z,9.78
2022-12-28T19:56:13.410Z,9.78
2022-12-28T19:58:43.582Z,9.82
2022-12-28T20:01:13.382Z,9.88
2022-12-28T20:03:43.622Z,9.85
2022-12-28T20:06:13.432Z,9.89
2022-12-28T20:08:45.568Z,9.92
2022-12-28T20:11:13.617Z,9.95
2022-12-28T20:13:41.796Z,9.98
2022-12-28T20:16:10.196Z,10.01
2022-12-28T20:18:38.003Z,10.08
2022-12-28T20:21:18.992Z,10.08
2022-12-28T20:23:48.030Z,10.12
2022-12-28T20:26:16.424Z,10.15
2022-12-28T20:28:45.446Z,10.28
2022-12-28T20:31:15.049Z,10.28
2022-12-28T20:33:43.856Z,10.33
2022-12-28T20:36:15.061Z,10.30
2022-12-28T20:38:43.253Z,10.30
2022-12-28T20:41:35.337Z,10.36
2022-12-28T20:44:04.300Z,10.38
2022-12-28T20:46:32.288Z,10.38
2022-12-28T20:49:00.199Z,10.43
2022-12-28T20:51:29.530Z,10.50
2022-12-28T20:53:57.387Z,10.53
2022-12-28T20:56:25.222Z,10.49
2022-12-28T20:58:53.118Z,10.45
2022-12-28T21:01:21.884Z,10.42
2022-12-28T21:03:49.927Z,10.39
2022-12-28T21:06:17.811Z,10.40
2022-12-28T21:08:47.037Z,10.32
2022-12-28T21:11:14.877Z,10.35
2022-12-28T21:13:44.861Z,10.39
2022-12-28T21:16:13.881Z,10.40
2022-12-28T21:18:42.125Z,10.42
2022-12-28T21:21:15.252Z,10.50
2022-12-28T21:23:43.384Z,10.52
2022-12-28T21:26:14.328Z,10.55
2022-12-28T21:28:42.588Z,10.55
2022-12-28T21:31:10.929Z,10.56
2022-12-28T21:33:39.446Z,10.61
2022-12-28T21:36:09.416Z,10.63
2022-12-28T21:38:39.196Z,10.67
2022-12-28T21:41:09.103Z,10.67
2022-12-28T21:43:38.765Z,10.60
2022-12-28T21:46:08.191Z,10.56
2022-12-28T21:48:37.863Z,10.49
2022-12-28T21:51:27.471Z,10.49
2022-12-28T21:53:55.531Z,10.40
2022-12-28T21:56:23.396Z,10.36
2022-12-28T21:58:52.595Z,10.32
2022-12-28T22:01:34.660Z,10.29
2022-12-28T22:04:19.959Z,10.28
2022-12-28T22:06:47.863Z,10.29
2022-12-28T22:09:35.681Z,10.32
2022-12-28T22:12:20.809Z,10.39
2022-12-28T22:14:50.006Z,10.49
2022-12-28T22:17:17.802Z,10.50
2022-12-28T22:19:45.613Z,10.55
2022-12-28T22:22:13.436Z,10.60
2022-12-28T22:24:41.260Z,10.63
2022-12-28T22:27:09.082Z,10.64
2022-12-28T22:29:36.859Z,10.73
2022-12-28T22:32:06.671Z,10.81
2022-12-28T22:34:34.528Z,10.77
2022-12-28T22:37:02.417Z,10.83
2022-12-28T22:39:30.227Z,10.80
2022-12-28T22:41:58.069Z,10.85
2022-12-28T22:44:25.870Z,10.85
2022-12-28T22:46:55.102Z,10.89
2022-12-28T22:49:24.233Z,10.91
2022-12-28T22:51:52.040Z,10.85
2022-12-28T22:54:19.856Z,10.70
2022-12-28T22:56:47.704Z,10.69
2022-12-28T22:59:15.963Z,10.61
2022-12-28T23:01:44.495Z,10.69
2022-12-28T23:04:12.354Z,10.73
2022-12-28T23:06:41.469Z,10.71
2022-12-28T23:09:09.275Z,10.74
2022-12-28T23:11:40.372Z,10.80
2022-12-28T23:14:27.379Z,10.80
2022-12-28T23:16:55.287Z,10.79
2022-12-28T23:19:40.663Z,10.76
2022-12-28T23:22:32.534Z,10.66
2022-12-28T23:25:18.106Z,10.69
2022-12-28T23:27:47.504Z,10.69
2022-12-28T23:30:17.938Z,10.73
2022-12-28T23:32:46.293Z,10.73
2022-12-28T23:35:14.235Z,10.74
2022-12-28T23:37:43.729Z,10.76
2022-12-28T23:40:13.374Z,10.79
2022-12-28T23:42:42.328Z,10.80
2022-12-28T23:45:11.830Z,10.81
2022-12-28T23:47:39.709Z,10.81
2022-12-28T23:50:08.298Z,10.94
2022-12-28T23:52:36.125Z,10.94
2022-12-28T23:55:06.021Z,10.97
2022-12-28T23:57:33.812Z,10.93
